Time;durP1;ratioP1;P1;durP2;ratioP2;P2;SDS_P1;SDS_P2;PMS_P1;PMS_P2;Temp;Humidity;BMP_temperature;BMP_pressure;BME280_temperature;BME280_humidity;BME280_pressure;Samples;Min_cycle;Max_cycle;Signal;HPM_P1;HPM_P2
2022/03/27 00:04:28;;;;;;;9.82;6.20;;;;;;;13.93;36.49;102027.97;10356497;28;20561;-85
2022/03/27 00:09:30;;;;;;;11.27;5.37;;;;;;;14.52;35.31;102034.09;10361247;28;20549;-88
2022/03/27 00:14:32;;;;;;;8.33;5.47;;;;;;;14.62;34.67;102028.94;10360327;28;20233;-86
2022/03/27 00:19:34;;;;;;;8.70;5.80;;;;;;;14.21;35.76;102023.69;10352852;28;20210;-88
2022/03/27 00:24:36;;;;;;;7.43;5.30;;;;;;;14.52;34.78;102026.41;10355724;28;20210;-87
2022/03/27 00:29:39;;;;;;;8.33;5.77;;;;;;;14.03;35.52;102033.34;10355961;28;20702;-87
2022/03/27 00:34:42;;;;;;;7.57;5.43;;;;;;;13.83;35.92;102031.13;10352095;28;20205;-87
2022/03/27 00:39:45;;;;;;;10.53;6.50;;;;;;;14.34;35.64;102032.44;10363032;28;20217;-88
2022/03/27 00:44:47;;;;;;;9.87;5.53;;;;;;;14.07;35.31;102019.31;10368861;28;20205;-87
2022/03/27 00:49:49;;;;;;;10.00;6.53;;;;;;;14.35;35.47;102020.72;10357634;28;20573;-91
2022/03/27 00:54:52;;;;;;;7.63;5.90;;;;;;;13.89;35.77;102027.78;10372684;28;20213;-89
2022/03/27 00:59:54;;;;;;;8.87;5.67;;;;;;;14.01;36.05;102034.84;10353059;28;20202;-88
2022/03/27 01:04:56;;;;;;;9.90;5.93;;;;;;;13.08;37.71;102023.59;10354553;28;20263;-90
2022/03/27 01:09:58;;;;;;;9.87;6.33;;;;;;;13.88;36.24;102016.75;10343892;28;20221;-87
2022/03/27 01:15:01;;;;;;;9.30;6.00;;;;;;;14.11;35.32;102012.66;10353508;28;20275;-89
2022/03/27 01:20:04;;;;;;;6.67;5.37;;;;;;;14.13;35.07;102015.13;10350209;28;20210;-87
2022/03/27 01:25:07;;;;;;;9.27;5.97;;;;;;;13.68;36.13;102017.38;10329825;28;20283;-89
2022/03/27 01:30:11;;;;;;;9.67;6.13;;;;;;;13.20;37.60;102012.47;10367359;28;20280;-87
2022/03/27 01:35:13;;;;;;;11.83;6.73;;;;;;;13.72;36.56;102001.34;10346596;28;20213;-88
2022/03/27 01:40:17;;;;;;;13.53;7.47;;;;;;;13.94;35.99;102004.91;10333277;28;20202;-88
2022/03/27 01:45:19;;;;;;;10.40;7.10;;;;;;;14.09;36.12;101997.91;10369954;28;20196;-86
2022/03/27 01:50:22;;;;;;;12.87;7.17;;;;;;;13.72;36.34;102004.19;10362428;28;20572;-88
2022/03/27 01:55:24;;;;;;;9.93;6.67;;;;;;;13.67;36.15;101998.66;10377045;28;20602;-88
2022/03/27 02:00:26;;;;;;;9.80;6.37;;;;;;;13.89;36.17;101996.53;10364236;28;20209;-87
2022/03/27 02:05:31;;;;;;;9.30;6.90;;;;;;;13.84;35.74;101996.69;10371397;28;20213;-88
2022/03/27 02:10:33;;;;;;;8.07;6.83;;;;;;;13.84;36.36;101995.84;10369962;28;20224;-88
2022/03/27 02:15:35;;;;;;;9.40;7.17;;;;;;;13.67;36.67;101987.28;10357695;28;20665;-89
2022/03/27 02:20:39;;;;;;;13.00;8.10;;;;;;;13.85;36.25;101997.53;10343995;28;20228;-87
2022/03/27 02:25:42;;;;;;;10.73;7.37;;;;;;;13.92;35.88;101995.03;10375424;28;20255;-87
2022/03/27 02:30:45;;;;;;;12.47;8.03;;;;;;;13.76;36.34;101999.50;10353007;28;20232;-88
2022/03/27 02:35:47;;;;;;;9.07;7.10;;;;;;;13.84;35.84;101995.84;10365622;28;20255;-88
2022/03/27 02:40:49;;;;;;;15.80;7.80;;;;;;;13.38;36.07;102000.00;10358672;28;20251;-88
2022/03/27 02:45:53;;;;;;;10.27;7.27;;;;;;;13.16;37.11;102000.06;10374249;28;20210;-88
2022/03/27 02:50:55;;;;;;;10.03;8.30;;;;;;;13.65;36.33;101993.28;10342931;28;20522;-89
2022/03/27 02:55:57;;;;;;;10.33;8.40;;;;;;;13.42;36.68;101995.34;10357673;28;20213;-87
2022/03/27 03:01:02;;;;;;;14.07;9.40;;;;;;;13.59;36.89;101995.44;10363946;28;20275;-87
2022/03/27 03:06:06;;;;;;;10.87;9.73;;;;;;;13.60;37.36;101997.09;10391188;28;20268;-89
2022/03/27 03:11:09;;;;;;;12.73;10.13;;;;;;;13.80;37.14;101994.84;10359901;28;20229;-87
2022/03/27 03:16:12;;;;;;;13.33;10.20;;;;;;;13.82;37.43;101998.19;10342988;28;20583;-89
2022/03/27 03:21:16;;;;;;;13.03;10.50;;;;;;;13.72;37.09;101987.97;10367993;28;20193;-88
2022/03/27 03:26:18;;;;;;;17.20;11.17;;;;;;;13.80;37.44;101998.50;10343143;28;20681;-89
2022/03/27 03:31:20;;;;;;;14.73;11.53;;;;;;;13.53;37.52;101991.03;10381276;28;20236;-88
2022/03/27 03:36:23;;;;;;;15.10;11.03;;;;;;;13.34;37.90;101998.16;10354399;28;20210;-87
2022/03/27 03:41:25;;;;;;;15.57;12.07;;;;;;;13.14;38.53;102000.41;10361476;28;20264;-88
2022/03/27 03:46:48;;;;;;;18.27;12.50;;;;;;;13.71;37.71;101994.81;10387285;28;20675;-87
2022/03/27 03:51:50;;;;;;;17.20;14.47;;;;;;;13.41;38.62;102005.03;10381113;28;20638;-87
2022/03/27 03:56:52;;;;;;;19.33;13.40;;;;;;;13.23;38.61;102003.28;10376314;28;20208;-89
2022/03/27 04:01:55;;;;;;;20.53;15.00;;;;;;;13.28;38.93;102005.97;10358563;28;20209;-90
2022/03/27 04:07:04;;;;;;;21.17;16.60;;;;;;;14.29;36.96;102000.09;10351128;28;20492;-88
2022/03/27 04:12:06;;;;;;;23.50;17.07;;;;;;;13.92;37.47;101997.88;10354337;28;20229;-87
2022/03/27 04:17:09;;;;;;;19.43;15.70;;;;;;;13.44;38.36;101997.88;10375024;28;20230;-87
2022/03/27 04:22:11;;;;;;;24.40;18.60;;;;;;;13.52;38.14;101992.22;10374028;28;20200;-87
2022/03/27 04:27:14;;;;;;;23.50;18.30;;;;;;;14.18;36.86;101983.69;10363442;28;20267;-89
2022/03/27 04:32:16;;;;;;;23.20;18.63;;;;;;;13.43;38.16;101993.34;10360211;28;20256;-87
2022/03/27 04:37:18;;;;;;;26.67;20.10;;;;;;;13.19;38.87;102007.94;10353129;28;20267;-88
2022/03/27 04:42:20;;;;;;;24.77;19.40;;;;;;;13.65;37.64;101992.44;10352868;28;20209;-87
2022/03/27 04:47:23;;;;;;;22.57;18.47;;;;;;;13.58;37.91;102007.97;10358077;28;20232;-88
2022/03/27 04:52:26;;;;;;;23.63;17.90;;;;;;;14.00;37.10;101996.19;10363257;28;20252;-87
2022/03/27 04:57:37;;;;;;;20.80;17.10;;;;;;;13.91;37.23;102013.25;10354684;28;20346;-89
2022/03/27 05:02:40;;;;;;;22.07;17.97;;;;;;;13.91;37.64;102016.09;10354231;28;20281;-88
2022/03/27 05:07:44;;;;;;;20.40;16.13;;;;;;;12.12;39.85;102030.44;10366854;28;20244;-87
2022/03/27 05:12:46;;;;;;;21.17;16.93;;;;;;;13.57;37.39;102023.34;10352323;28;20256;-88
2022/03/27 05:17:53;;;;;;;21.40;15.87;;;;;;;13.33;37.71;102025.72;10354341;28;20237;-87
2022/03/27 05:22:57;;;;;;;18.43;16.03;;;;;;;13.19;37.81;102030.66;10356274;28;20205;-89
2022/03/27 05:27:59;;;;;;;21.13;16.23;;;;;;;12.94;37.96;102034.19;10349263;28;20213;-88
2022/03/27 05:33:03;;;;;;;17.90;15.00;;;;;;;13.11;37.77;102035.13;10377493;28;20229;-85
2022/03/27 05:38:05;;;;;;;18.07;14.13;;;;;;;12.72;38.19;102032.13;10340087;28;20209;-87
2022/03/27 05:43:07;;;;;;;18.83;15.13;;;;;;;13.12;37.19;102035.94;10365172;28;20194;-88
2022/03/27 05:48:12;;;;;;;17.40;14.60;;;;;;;13.59;36.03;102028.69;10351089;28;20260;-87
2022/03/27 05:53:15;;;;;;;20.20;14.87;;;;;;;13.21;36.82;102040.50;10351175;28;20641;-89
2022/03/27 05:58:18;;;;;;;19.43;15.90;;;;;;;13.45;36.35;102028.78;10358843;28;20275;-90
2022/03/27 06:03:20;;;;;;;17.20;14.73;;;;;;;13.35;36.70;102034.75;10356083;28;20213;-87
2022/03/27 06:08:22;;;;;;;17.13;14.57;;;;;;;13.76;35.67;102039.28;10353076;28;20505;-90
2022/03/27 06:13:25;;;;;;;18.87;14.93;;;;;;;13.56;36.21;102046.38;10360330;28;20310;-87
2022/03/27 06:18:27;;;;;;;17.83;15.50;;;;;;;13.95;35.59;102048.41;10384515;28;20307;-86
2022/03/27 06:23:30;;;;;;;18.07;14.90;;;;;;;13.61;36.08;102049.94;10421466;28;20258;-87
2022/03/27 06:28:32;;;;;;;17.73;14.63;;;;;;;13.46;36.41;102064.56;10381163;28;20601;-87
2022/03/27 06:33:34;;;;;;;20.93;16.50;;;;;;;13.64;35.75;102064.66;10366585;28;20260;-86
2022/03/27 06:38:38;;;;;;;19.93;15.27;;;;;;;13.94;35.18;102060.94;10358247;28;20204;-86
2022/03/27 06:43:40;;;;;;;22.27;17.03;;;;;;;13.46;35.65;102070.25;10379345;28;20229;-87
2022/03/27 06:48:47;;;;;;;23.80;17.00;;;;;;;13.68;35.64;102066.53;10386206;28;20217;-88
2022/03/27 06:53:50;;;;;;;22.40;16.97;;;;;;;13.45;36.13;102062.88;10383995;28;20629;-88
2022/03/27 06:58:52;;;;;;;19.73;15.33;;;;;;;13.19;36.18;102067.59;10379434;28;20542;-89
2022/03/27 07:03:55;;;;;;;21.00;15.87;;;;;;;13.73;35.20;102071.25;10382533;28;20213;-90
2022/03/27 07:08:59;;;;;;;22.03;16.50;;;;;;;13.84;35.15;102069.78;10382715;28;20209;-88
2022/03/27 07:14:02;;;;;;;22.50;17.20;;;;;;;14.04;35.03;102072.00;10388151;28;20249;-87
2022/03/27 07:19:05;;;;;;;20.93;16.83;;;;;;;13.64;35.31;102073.19;10374426;28;20294;-90
2022/03/27 07:24:08;;;;;;;20.93;15.37;;;;;;;14.17;34.30;102067.34;10390744;28;20471;-91
2022/03/27 07:29:11;;;;;;;18.33;15.03;;;;;;;13.44;35.76;102071.75;10349043;28;20196;-87
2022/03/27 07:34:13;;;;;;;24.70;16.20;;;;;;;13.83;34.79;102065.25;10374181;28;20307;-87
2022/03/27 07:39:15;;;;;;;20.83;15.93;;;;;;;12.96;36.04;102071.56;10341735;28;20216;-86
2022/03/27 07:44:18;;;;;;;22.90;16.27;;;;;;;13.29;36.14;102064.47;10362133;28;20283;-88
2022/03/27 07:49:23;;;;;;;23.37;17.27;;;;;;;12.78;36.96;102057.25;10356098;28;20201;-91
2022/03/27 07:54:27;;;;;;;21.57;15.80;;;;;;;13.75;35.44;102055.50;10332778;28;20248;-90
2022/03/27 07:59:30;;;;;;;21.87;17.13;;;;;;;14.07;34.49;102059.13;10338750;28;20208;-88
2022/03/27 08:04:34;;;;;;;23.87;16.57;;;;;;;14.91;33.39;102053.84;10359572;28;20204;-84
2022/03/27 08:09:36;;;;;;;25.27;16.87;;;;;;;13.56;35.71;102072.81;10348742;28;20212;-86
2022/03/27 08:14:39;;;;;;;22.43;16.90;;;;;;;14.37;34.35;102061.06;10367941;28;20241;-87
2022/03/27 08:19:47;;;;;;;21.07;16.47;;;;;;;13.87;34.53;102055.72;10381951;28;20287;-87
2022/03/27 08:24:49;;;;;;;21.27;15.90;;;;;;;14.28;33.70;102061.00;10352000;28;20271;-86
2022/03/27 08:29:52;;;;;;;20.25;15.40;;;;;;;14.51;33.66;102063.72;10360491;28;20240;-87
2022/03/27 08:34:54;;;;;;;22.67;18.00;;;;;;;15.12;32.72;102071.13;10379701;28;20786;-87
2022/03/27 08:39:58;;;;;;;22.67;17.17;;;;;;;15.67;31.88;102065.44;10366414;28;20263;-88
2022/03/27 08:45:01;;;;;;;21.83;16.13;;;;;;;14.33;34.16;102062.06;10361235;28;20594;-88
2022/03/27 08:50:27;;;;;;;24.90;17.70;;;;;;;14.99;33.10;102060.72;10363229;28;20232;-89
2022/03/27 08:55:55;;;;;;;20.07;16.40;;;;;;;15.38;32.54;102063.34;10363892;28;20236;-89
2022/03/27 09:01:04;;;;;;;23.58;17.77;;;;;;;14.15;33.84;102070.50;10368162;28;20305;-89
2022/03/27 09:06:08;;;;;;;24.93;18.07;;;;;;;14.84;33.21;102062.06;10376267;28;20448;-90
2022/03/27 09:11:16;;;;;;;26.63;19.30;;;;;;;14.77;32.70;102069.47;10379733;28;20278;-89
2022/03/27 09:16:19;;;;;;;24.00;18.27;;;;;;;15.70;31.72;102059.03;10364741;28;20241;-87
2022/03/27 09:21:26;;;;;;;24.70;18.57;;;;;;;15.97;31.00;102062.59;10359453;28;20241;-89
2022/03/27 09:26:31;;;;;;;25.83;18.73;;;;;;;15.18;32.67;102074.63;10350111;28;20209;-86
2022/03/27 09:31:36;;;;;;;20.92;16.63;;;;;;;14.91;32.88;102070.94;10357403;28;20285;-90
2022/03/27 09:36:43;;;;;;;21.97;16.13;;;;;;;15.65;31.74;102073.47;10367715;28;20205;-88
2022/03/27 09:41:54;;;;;;;22.67;15.63;;;;;;;15.92;31.09;102068.53;10351637;28;20197;-88
2022/03/27 09:47:00;;;;;;;21.63;16.93;;;;;;;15.92;31.82;102062.81;10362508;28;20205;-88
2022/03/27 09:52:08;;;;;;;22.37;16.47;;;;;;;16.06;31.15;102055.69;10338548;28;20244;-89
2022/03/27 09:57:22;;;;;;;21.98;16.42;;;;;;;16.22;31.00;102057.91;10371601;28;20209;-87
2022/03/27 10:02:27;;;;;;;18.40;14.90;;;;;;;15.70;31.25;102056.16;10322907;28;20506;-87
2022/03/27 10:07:39;;;;;;;22.55;15.60;;;;;;;16.04;31.34;102045.81;10333776;28;20213;-89
2022/03/27 10:12:44;;;;;;;22.52;15.60;;;;;;;16.72;29.90;102043.63;10370195;28;20264;-87
2022/03/27 10:18:01;;;;;;;20.52;15.27;;;;;;;16.06;30.86;102043.44;10362823;28;20306;-85
2022/03/27 10:23:07;;;;;;;20.37;15.77;;;;;;;16.64;30.50;102042.53;10375785;28;20215;-87
2022/03/27 10:28:10;;;;;;;16.10;13.43;;;;;;;16.64;30.49;102033.13;10391422;28;20263;-86
2022/03/27 10:33:14;;;;;;;18.73;15.20;;;;;;;17.41;29.46;102031.50;10386971;28;20221;-87
2022/03/27 10:38:23;;;;;;;16.90;13.20;;;;;;;16.73;30.38;102028.16;10339110;28;20213;-86
2022/03/27 10:43:47;;;;;;;18.70;13.00;;;;;;;15.80;31.32;102022.78;10345113;28;20778;-88
2022/03/27 10:48:51;;;;;;;15.85;12.85;;;;;;;16.72;30.62;102009.34;10365751;28;20205;-87
2022/03/27 10:54:08;;;;;;;16.33;13.73;;;;;;;16.75;30.22;102008.66;10342914;28;20229;-86
2022/03/27 10:59:18;;;;;;;18.30;14.27;;;;;;;16.12;31.32;102004.97;10363293;28;20227;-85
2022/03/27 11:04:23;;;;;;;17.23;13.70;;;;;;;16.78;30.30;102002.25;10354500;28;20267;-86
2022/03/27 11:09:40;;;;;;;17.87;13.73;;;;;;;17.25;29.79;102004.78;10358992;28;20268;-88
2022/03/27 11:14:51;;;;;;;16.45;13.38;;;;;;;17.91;28.95;101994.00;10376485;28;20278;-88
2022/03/27 11:19:53;;;;;;;14.60;12.40;;;;;;;17.05;29.92;101989.41;10361108;28;20275;-88
2022/03/27 11:25:23;;;;;;;18.40;14.30;;;;;;;17.62;29.00;101986.50;10342072;28;20258;-88
2022/03/27 11:30:26;;;;;;;17.58;13.38;;;;;;;16.16;30.71;101983.13;10381789;28;20201;-88
2022/03/27 11:35:28;;;;;;;17.05;13.35;;;;;;;16.73;30.44;101979.59;10396317;28;20256;-86
2022/03/27 11:40:39;;;;;;;17.50;13.00;;;;;;;16.73;30.28;101971.03;10382451;28;20204;-86
2022/03/27 11:45:41;;;;;;;18.33;12.60;;;;;;;16.11;30.96;101966.19;10367616;28;20197;-85
2022/03/27 11:50:44;;;;;;;16.65;13.02;;;;;;;17.21;29.33;101952.41;10370449;28;20499;-84
2022/03/27 11:55:46;;;;;;;15.90;13.15;;;;;;;17.99;28.31;101950.13;10364959;28;20211;-85
2022/03/27 12:00:48;;;;;;;15.65;11.98;;;;;;;18.06;28.33;101929.47;10358228;28;20209;-86
2022/03/27 12:05:52;;;;;;;14.83;11.67;;;;;;;18.47;28.06;101932.00;10357387;28;20202;-84
2022/03/27 12:10:56;;;;;;;12.50;10.35;;;;;;;17.33;29.05;101924.66;10360970;28;20232;-85
2022/03/27 12:15:59;;;;;;;12.43;11.13;;;;;;;18.42;27.49;101906.47;10368939;28;20233;-86
2022/03/27 12:21:10;;;;;;;12.70;11.07;;;;;;;17.69;28.84;101900.94;10360092;28;20231;-84
2022/03/27 12:31:35;;;;;;;13.27;9.52;;;;;;;17.43;28.35;101897.59;10378124;28;20236;-85
2022/03/27 12:37:09;;;;;;;10.60;9.25;;;;;;;18.30;26.66;101886.47;10394119;28;20224;-84
2022/03/27 12:42:37;;;;;;;11.38;9.38;;;;;;;17.69;27.19;101882.94;10344411;28;20205;-88
2022/03/27 12:47:43;;;;;;;9.63;8.57;;;;;;;18.29;27.03;101873.38;10352907;28;20267;-84
2022/03/27 12:52:57;;;;;;;13.20;9.30;;;;;;;18.15;27.19;101861.47;10354263;28;20229;-84
2022/03/27 12:58:00;;;;;;;9.93;8.63;;;;;;;18.51;26.34;101858.47;10366005;28;20213;-87
2022/03/27 13:03:12;;;;;;;13.38;10.10;;;;;;;18.67;26.68;101855.59;10372489;28;20193;-86
2022/03/27 13:08:34;;;;;;;8.98;7.97;;;;;;;18.55;25.48;101847.94;10351000;28;20244;-86
2022/03/27 13:13:38;;;;;;;8.53;7.57;;;;;;;17.36;27.41;101846.75;10354482;28;20225;-85
2022/03/27 13:18:41;;;;;;;9.90;7.65;;;;;;;18.80;25.83;101824.84;10349265;28;20530;-86
2022/03/27 13:23:43;;;;;;;9.77;7.78;;;;;;;18.04;27.21;101823.94;10352889;28;20683;-83
2022/03/27 13:28:45;;;;;;;9.65;8.55;;;;;;;18.57;25.95;101824.66;10350490;28;20790;-89
2022/03/27 13:33:48;;;;;;;10.70;8.57;;;;;;;19.14;25.52;101812.66;10315336;28;20268;-85
2022/03/27 13:38:51;;;;;;;13.48;10.68;;;;;;;21.18;22.98;101802.09;10361167;28;20267;-91
2022/03/27 13:43:53;;;;;;;10.98;8.82;;;;;;;19.16;25.38;101804.53;10374461;28;20464;-84
2022/03/27 13:48:55;;;;;;;11.70;9.43;;;;;;;20.31;24.45;101800.13;10372694;28;20274;-88
2022/03/27 13:53:58;;;;;;;11.65;9.45;;;;;;;20.19;24.36;101786.78;10373100;28;20699;-89
2022/03/27 13:59:01;;;;;;;11.35;8.82;;;;;;;21.18;22.90;101778.25;10383148;28;20196;-88
2022/03/27 14:04:03;;;;;;;10.33;8.50;;;;;;;20.39;24.08;101776.06;10388188;28;20593;-87
2022/03/27 14:09:06;;;;;;;11.15;8.98;;;;;;;20.86;23.67;101772.84;10404386;28;20204;-87
2022/03/27 14:14:09;;;;;;;10.70;8.60;;;;;;;19.36;25.26;101773.03;10395535;28;20594;-88
2022/03/27 14:19:11;;;;;;;9.02;8.13;;;;;;;20.63;23.72;101769.09;10379893;28;20263;-87
2022/03/27 14:24:14;;;;;;;10.45;8.88;;;;;;;20.04;24.20;101781.09;10386613;28;20278;-89
2022/03/27 14:29:17;;;;;;;8.88;7.60;;;;;;;19.81;24.21;101766.69;10386305;28;20240;-88
2022/03/27 14:34:20;;;;;;;8.77;7.20;;;;;;;20.67;23.49;101757.69;10396696;28;20587;-87
2022/03/27 14:39:22;;;;;;;7.50;5.78;;;;;;;19.33;24.10;101754.53;10384805;28;20283;-86
2022/03/27 14:44:26;;;;;;;6.20;5.60;;;;;;;20.09;23.35;101749.25;10372091;28;20205;-87
2022/03/27 14:49:31;;;;;;;4.60;4.20;;;;;;;19.88;23.12;101747.56;10375676;28;20217;-92
2022/03/27 14:59:54;;;;;;;6.10;5.50;;;;;;;18.72;24.68;101742.78;10374764;28;20509;-85
2022/03/27 15:04:56;;;;;;;5.38;4.70;;;;;;;20.01;23.02;101733.88;10394956;28;20252;-85
2022/03/27 15:10:00;;;;;;;5.10;4.40;;;;;;;20.17;22.63;101722.31;10359206;28;20209;-87
2022/03/27 15:15:02;;;;;;;5.63;4.32;;;;;;;20.19;22.82;101735.09;10332765;28;20521;-87
2022/03/27 15:20:06;;;;;;;5.93;4.82;;;;;;;21.05;22.08;101717.25;10377614;28;20290;-87
2022/03/27 15:25:09;;;;;;;8.80;6.32;;;;;;;19.72;23.98;101711.53;10393586;28;20664;-87
2022/03/27 15:30:12;;;;;;;5.70;4.78;;;;;;;20.48;22.72;101699.06;10342459;28;20291;-86
2022/03/27 15:35:14;;;;;;;6.85;5.70;;;;;;;20.70;23.03;101687.97;10349858;28;20645;-87
2022/03/27 15:40:19;;;;;;;5.03;4.53;;;;;;;20.81;22.56;101688.97;10367440;28;22261;-88
2022/03/27 15:45:21;;;;;;;8.23;4.43;;;;;;;20.48;22.79;101689.66;10374799;28;20221;-85
2022/03/27 15:50:25;;;;;;;8.98;5.70;;;;;;;19.87;23.32;101697.09;10376903;28;20266;-89
2022/03/27 15:55:28;;;;;;;9.25;5.70;;;;;;;20.78;22.50;101683.97;10373661;28;20225;-86
2022/03/27 16:00:30;;;;;;;5.13;4.03;;;;;;;20.38;23.01;101681.66;10377417;28;20198;-84
2022/03/27 16:05:32;;;;;;;6.95;5.28;;;;;;;20.12;23.36;101674.63;10377399;28;20537;-92
2022/03/27 16:10:35;;;;;;;5.88;4.47;;;;;;;19.44;23.58;101683.09;10359363;28;20471;-87
2022/03/27 16:15:37;;;;;;;3.92;3.58;;;;;;;19.55;23.36;101678.44;10361427;28;20236;-88
2022/03/27 16:20:39;;;;;;;4.10;3.67;;;;;;;20.31;22.84;101676.63;10389137;28;20209;-91
2022/03/27 16:25:46;;;;;;;4.85;4.35;;;;;;;20.36;22.55;101679.16;10363185;28;20189;-88
2022/03/27 16:30:49;;;;;;;5.03;4.45;;;;;;;20.33;22.83;101667.63;10391136;28;20198;-88
2022/03/27 16:35:51;;;;;;;4.75;4.15;;;;;;;20.32;22.97;101672.53;10392716;28;20229;-88
2022/03/27 16:40:54;;;;;;;4.32;3.80;;;;;;;20.29;22.69;101667.56;10379621;28;20201;-88
2022/03/27 16:45:56;;;;;;;3.83;3.45;;;;;;;20.67;22.14;101665.75;10368973;28;20197;-85
2022/03/27 16:50:59;;;;;;;4.80;4.13;;;;;;;20.28;22.19;101661.00;10373105;28;20210;-89
2022/03/27 16:56:02;;;;;;;5.53;4.40;;;;;;;19.37;23.86;101669.41;10369141;28;20728;-85
2022/03/27 17:01:04;;;;;;;5.30;4.50;;;;;;;20.11;23.56;101654.91;10359229;28;20197;-88
2022/03/27 17:06:07;;;;;;;4.60;4.20;;;;;;;20.64;22.49;101650.94;10375516;28;20655;-87
2022/03/27 17:11:09;;;;;;;5.72;4.28;;;;;;;19.55;22.45;101655.47;10367881;28;20276;-88
2022/03/27 17:16:13;;;;;;;7.88;5.05;;;;;;;19.61;22.08;101659.69;10341280;28;21014;-89
2022/03/27 17:21:16;;;;;;;6.45;4.88;;;;;;;18.95;22.22;101668.44;10371410;28;20659;-89
2022/03/27 17:26:18;;;;;;;7.53;4.93;;;;;;;18.59;23.03;101663.88;10337476;28;20205;-89
2022/03/27 17:31:22;;;;;;;6.38;5.20;;;;;;;19.17;22.40;101673.47;10364974;28;20205;-88
2022/03/27 17:36:25;;;;;;;5.55;4.80;;;;;;;19.41;22.07;101672.34;10358253;28;20253;-88
2022/03/27 17:41:30;;;;;;;6.55;4.93;;;;;;;19.46;21.86;101687.22;10370654;28;20244;-87
2022/03/27 17:46:33;;;;;;;5.30;4.70;;;;;;;19.10;22.82;101679.03;10361227;28;20205;-87
2022/03/27 17:51:36;;;;;;;7.88;4.75;;;;;;;18.90;22.67;101686.78;10345175;28;20514;-93
2022/03/27 17:56:38;;;;;;;6.88;5.05;;;;;;;18.94;22.66;101687.69;10341023;28;20249;-88
2022/03/27 18:01:42;;;;;;;7.20;4.53;;;;;;;18.51;23.06;101686.63;10357058;28;20212;-89
2022/03/27 18:06:47;;;;;;;7.03;4.97;;;;;;;18.62;22.91;101683.22;10357501;28;20282;-92
2022/03/27 18:11:50;;;;;;;6.60;4.37;;;;;;;18.48;22.63;101689.41;10344133;28;20197;-92
2022/03/27 18:16:54;;;;;;;6.87;5.47;;;;;;;17.47;24.00;101698.44;10352842;28;20692;-91
2022/03/27 18:21:58;;;;;;;9.17;5.60;;;;;;;18.04;23.47;101689.44;10368218;28;20498;-91
2022/03/27 18:27:00;;;;;;;7.97;6.22;;;;;;;18.15;22.94;101686.88;10349509;28;20522;-91
2022/03/27 18:32:03;;;;;;;7.13;5.87;;;;;;;17.69;23.35;101692.16;10345067;28;20201;-89
2022/03/27 18:37:05;;;;;;;7.30;5.70;;;;;;;17.82;23.32;101699.47;10345581;28;20225;-90
2022/03/27 18:42:07;;;;;;;9.10;5.50;;;;;;;17.38;24.38;101700.59;10352495;28;20201;-87
2022/03/27 18:47:10;;;;;;;8.38;6.07;;;;;;;17.59;23.87;101697.53;10353094;28;20194;-88
2022/03/27 18:52:13;;;;;;;7.57;5.97;;;;;;;17.77;23.89;101702.59;10353092;28;20669;-90
2022/03/27 18:57:15;;;;;;;9.77;6.13;;;;;;;17.82;23.61;101699.47;10353825;28;20260;-88
2022/03/27 19:02:19;;;;;;;7.88;5.72;;;;;;;17.72;23.77;101702.88;10354967;28;20200;-87
2022/03/27 19:07:22;;;;;;;8.93;5.95;;;;;;;17.81;23.97;101697.81;10368246;28;20665;-90
2022/03/27 19:12:25;;;;;;;9.03;6.40;;;;;;;17.68;23.86;101699.06;10356812;28;20268;-88
2022/03/27 19:17:27;;;;;;;10.30;6.23;;;;;;;17.75;23.86;101704.97;10339218;28;20265;-88
2022/03/27 19:22:31;;;;;;;11.98;7.50;;;;;;;17.48;23.97;101702.94;10364437;28;20290;-89
2022/03/27 19:27:34;;;;;;;11.00;7.38;;;;;;;17.56;24.30;101704.81;10370710;28;20279;-87
2022/03/27 19:32:36;;;;;;;11.68;9.40;;;;;;;17.42;24.22;101707.25;10373592;28;20204;-89
2022/03/27 19:37:39;;;;;;;12.03;8.70;;;;;;;17.29;24.59;101706.47;10357941;28;20712;-90
2022/03/27 19:42:43;;;;;;;14.53;8.30;;;;;;;16.96;25.26;101706.63;10356508;28;20271;-89
2022/03/27 19:47:46;;;;;;;12.30;7.35;;;;;;;17.20;24.83;101710.66;10350022;28;20255;-87
2022/03/27 19:52:49;;;;;;;13.23;7.83;;;;;;;16.84;25.41;101712.38;10393285;28;20399;-88
2022/03/27 19:57:51;;;;;;;11.80;8.47;;;;;;;16.23;26.37;101705.75;10380288;28;20201;-88
2022/03/27 20:02:54;;;;;;;15.93;8.93;;;;;;;16.61;25.52;101714.00;10362623;28;20197;-87
2022/03/27 20:07:58;;;;;;;13.80;8.40;;;;;;;16.26;25.92;101717.28;10340690;28;20606;-90
2022/03/27 20:13:00;;;;;;;12.83;8.47;;;;;;;16.71;25.16;101711.53;10381644;28;20263;-86
2022/03/27 20:18:08;;;;;;;14.00;8.83;;;;;;;16.37;25.28;101707.09;10364931;28;20499;-90
2022/03/27 20:23:12;;;;;;;14.38;8.57;;;;;;;15.94;26.58;101703.91;10357785;28;20209;-87
2022/03/27 20:28:14;;;;;;;16.07;9.03;;;;;;;15.86;26.25;101713.41;10353259;28;20213;-88
2022/03/27 20:33:19;;;;;;;15.20;8.87;;;;;;;16.22;26.04;101704.91;10345055;28;20232;-88
2022/03/27 20:38:21;;;;;;;16.50;9.20;;;;;;;16.09;26.67;101706.09;10350604;28;20253;-87
2022/03/27 20:43:24;;;;;;;13.57;9.57;;;;;;;15.06;28.03;101695.66;10372722;28;20201;-89
2022/03/27 20:48:28;;;;;;;13.47;9.00;;;;;;;16.09;26.17;101686.94;10362273;28;20205;-89
2022/03/27 20:53:31;;;;;;;13.70;10.63;;;;;;;15.87;27.02;101692.25;10358965;28;20294;-89
2022/03/27 20:58:33;;;;;;;17.90;11.25;;;;;;;15.40;27.85;101697.41;10348563;28;20217;-89
2022/03/27 21:03:36;;;;;;;19.07;11.40;;;;;;;16.11;27.10;101697.16;10362335;28;20233;-90
2022/03/27 21:08:38;;;;;;;22.48;11.70;;;;;;;15.91;27.22;101698.94;10344074;28;20598;-89
2022/03/27 21:13:40;;;;;;;19.13;12.20;;;;;;;15.91;27.49;101693.22;10354876;28;20248;-90
2022/03/27 21:18:43;;;;;;;20.80;12.83;;;;;;;15.87;27.10;101692.25;10340501;28;20229;-90
2022/03/27 21:23:45;;;;;;;21.10;12.33;;;;;;;15.96;27.43;101684.41;10346516;28;20263;-87
2022/03/27 21:28:47;;;;;;;20.00;12.50;;;;;;;15.73;27.65;101682.00;10355814;28;20673;-87
2022/03/27 21:33:52;;;;;;;20.67;12.27;;;;;;;16.01;27.02;101667.94;10366412;28;20299;-89
2022/03/27 21:39:16;;;;;;;21.53;11.90;;;;;;;15.64;27.42;101669.00;10376479;28;20223;-86
2022/03/27 21:44:18;;;;;;;18.63;12.30;;;;;;;15.60;27.67;101670.88;10351411;28;20220;-89
2022/03/27 21:49:20;;;;;;;18.17;11.27;;;;;;;15.22;28.77;101673.91;10382669;28;20216;-87
2022/03/27 21:54:23;;;;;;;17.20;12.10;;;;;;;15.23;28.03;101661.34;10370622;28;20228;-86
2022/03/27 21:59:25;;;;;;;20.77;12.80;;;;;;;15.42;28.05;101664.50;10351120;28;20240;-89
2022/03/27 22:04:27;;;;;;;18.77;12.07;;;;;;;15.37;28.10;101657.00;10347579;28;20229;-87
2022/03/27 22:09:30;;;;;;;19.40;12.20;;;;;;;14.99;28.64;101651.44;10348262;28;20229;-88
2022/03/27 22:14:32;;;;;;;21.70;13.20;;;;;;;15.51;27.76;101651.00;10377391;28;20264;-88
2022/03/27 22:19:35;;;;;;;21.97;13.23;;;;;;;15.16;28.51;101655.34;10345346;28;20213;-89
2022/03/27 22:24:37;;;;;;;22.17;13.27;;;;;;;15.45;28.08;101641.00;10360027;28;20213;-88
2022/03/27 22:29:39;;;;;;;20.87;12.43;;;;;;;15.18;28.58;101644.44;10360629;28;20697;-87
2022/03/27 22:34:42;;;;;;;20.10;13.03;;;;;;;15.30;28.40;101644.50;10357385;28;20287;-87
2022/03/27 22:39:44;;;;;;;22.87;14.03;;;;;;;15.16;28.61;101633.38;10335748;28;20217;-87
2022/03/27 22:44:46;;;;;;;24.83;14.10;;;;;;;14.78;29.17;101627.81;10338747;28;20607;-89
2022/03/27 22:49:48;;;;;;;20.80;13.13;;;;;;;15.07;28.72;101617.56;10359909;28;20664;-87
2022/03/27 22:54:52;;;;;;;21.80;12.93;;;;;;;14.86;29.37;101611.84;10342995;28;20229;-88
2022/03/27 22:59:55;;;;;;;21.50;12.60;;;;;;;14.90;28.92;101610.78;10353436;28;20483;-89
2022/03/27 23:04:57;;;;;;;22.27;13.40;;;;;;;14.86;28.97;101614.69;10370273;28;20210;-87
2022/03/27 23:09:59;;;;;;;19.90;13.03;;;;;;;14.66;29.35;101607.81;10357771;28;20614;-87